Time;durP1;ratioP1;P1;durP2;ratioP2;P2;SDS_P1;SDS_P2;PMS_P1;PMS_P2;Temp;Humidity;BMP_temperature;BMP_pressure;BME280_temperature;BME280_humidity;BME280_pressure;Samples;Min_cycle;Max_cycle;Signal;HPM_P1;HPM_P2
2023/05/29 00:00:13;;;;;;;8.30;1.92;;;;;;;-142.75;100.00;77794.88;5028189;28;20111;-65
2023/05/29 00:02:39;;;;;;;16.48;2.38;;;;;;;-142.75;100.00;77785.03;5028197;28;20072;-65
2023/05/29 00:05:05;;;;;;;13.27;2.67;;;;;;;-142.75;100.00;77785.03;5043146;28;20510;-65
2023/05/29 00:07:32;;;;;;;9.35;2.65;;;;;;;-142.75;100.00;77798.81;5028108;28;20025;-65
2023/05/29 00:09:58;;;;;;;11.80;2.03;;;;;;;-142.75;100.00;77783.06;5027643;28;20104;-65
2023/05/29 00:12:24;;;;;;;10.82;2.00;;;;;;;-142.75;100.00;77790.94;5028066;28;20167;-66
2023/05/29 00:14:49;;;;;;;10.98;2.33;;;;;;;-142.75;100.00;77794.88;5027887;28;20494;-65
2023/05/29 00:17:15;;;;;;;13.50;2.10;;;;;;;-142.75;100.00;77787.00;5027710;28;20025;-65
2023/05/29 00:19:42;;;;;;;15.75;2.28;;;;;;;-142.75;100.00;77802.75;5027994;28;20013;-65
2023/05/29 00:22:07;;;;;;;8.80;2.22;;;;;;;-142.75;100.00;77792.91;5028315;28;20041;-65
2023/05/29 00:24:33;;;;;;;10.68;2.15;;;;;;;-142.75;100.00;77787.00;5028002;28;20029;-65
2023/05/29 00:26:58;;;;;;;19.08;2.55;;;;;;;-142.75;100.00;77792.91;5027746;28;20057;-65
2023/05/29 00:29:23;;;;;;;17.15;2.00;;;;;;;-142.75;100.00;77779.13;5027836;28;20124;-66
2023/05/29 00:31:49;;;;;;;8.65;1.83;;;;;;;-142.75;100.00;77787.00;5027588;28;20055;-65
2023/05/29 00:34:14;;;;;;;18.95;2.85;;;;;;;-142.75;100.00;77802.75;5027860;28;20021;-65
2023/05/29 00:36:39;;;;;;;13.73;2.38;;;;;;;-142.75;100.00;77810.63;5027683;28;20529;-65
2023/05/29 00:39:05;;;;;;;9.05;2.05;;;;;;;-142.75;100.00;77832.28;5027326;28;20136;-66
2023/05/29 00:41:30;;;;;;;12.55;1.95;;;;;;;-142.75;100.00;77853.94;5027430;28;20025;-65
2023/05/29 00:43:55;;;;;;;8.57;1.92;;;;;;;-142.75;100.00;77850.00;5026273;28;20026;-65
2023/05/29 00:46:21;;;;;;;15.43;2.35;;;;;;;-142.75;100.00;77865.75;5027168;28;20658;-65
2023/05/29 00:48:47;;;;;;;12.30;2.53;;;;;;;-142.75;100.00;77865.75;5027169;28;20029;-66
2023/05/29 00:51:15;;;;;;;11.68;1.95;;;;;;;-142.75;100.00;77865.75;5027468;28;20029;-64
2023/05/29 00:53:42;;;;;;;10.55;2.38;;;;;;;-142.75;100.00;77863.78;5027978;28;20021;-65
2023/05/29 00:56:08;;;;;;;13.30;3.20;;;;;;;-142.75;100.00;77877.56;5026799;28;20037;-64
2023/05/29 00:58:34;;;;;;;12.45;2.42;;;;;;;-142.75;100.00;77869.69;5027114;28;20363;-66
2023/05/29 01:01:00;;;;;;;15.98;2.60;;;;;;;-142.75;100.00;77881.50;5026842;28;20043;-65
2023/05/29 01:03:25;;;;;;;14.70;2.90;;;;;;;-142.75;100.00;77877.56;5027268;28;20029;-64
2023/05/29 01:05:52;;;;;;;13.88;2.70;;;;;;;-142.75;100.00;77895.28;5027766;28;20025;-65
2023/05/29 01:08:18;;;;;;;13.45;2.10;;;;;;;-142.75;100.00;77895.28;5026264;28;20113;-64
2023/05/29 01:10:43;;;;;;;8.75;2.10;;;;;;;-142.75;100.00;77897.25;5026396;28;20122;-65
2023/05/29 01:13:19;;;;;;;9.38;2.30;;;;;;;-142.75;100.00;77889.38;5026852;28;20557;-65
2023/05/29 01:15:57;;;;;;;7.78;2.03;;;;;;;-142.75;100.00;77905.13;5026177;28;20113;-65
2023/05/29 01:18:45;;;;;;;14.80;2.33;;;;;;;-142.75;100.00;77905.13;5050088;28;20030;-65
2023/05/29 01:21:41;;;;;;;13.02;2.00;;;;;;;-142.75;100.00;77913.03;5025423;28;20463;-65
2023/05/29 01:24:30;;;;;;;10.70;2.28;;;;;;;-142.75;100.00;77930.75;5022208;28;20380;-65
2023/05/29 01:27:02;;;;;;;8.20;2.20;;;;;;;-142.75;100.00;77913.03;5016950;28;20037;-65
2023/05/29 01:29:34;;;;;;;10.45;2.10;;;;;;;-142.75;100.00;77948.47;5026335;28;20644;-64
2023/05/29 01:32:01;;;;;;;13.98;2.58;;;;;;;-142.75;100.00;77940.59;5025192;28;20037;-66
2023/05/29 01:34:27;;;;;;;16.05;2.33;;;;;;;-142.75;100.00;77966.19;5026619;28;20038;-66
2023/05/29 01:36:53;;;;;;;10.30;2.28;;;;;;;-142.75;100.00;77948.47;5026796;28;20100;-66
2023/05/29 01:39:21;;;;;;;14.52;2.22;;;;;;;-142.75;100.00;77932.72;5025977;28;20129;-65
2023/05/29 01:41:47;;;;;;;15.13;2.17;;;;;;;-142.75;100.00;77968.16;5026370;28;20033;-64
2023/05/29 01:44:13;;;;;;;19.23;2.50;;;;;;;-142.75;100.00;77964.22;5026400;28;20063;-65
2023/05/29 01:46:40;;;;;;;15.20;2.85;;;;;;;-142.75;100.00;77974.06;5025929;28;20112;-66
2023/05/29 01:49:07;;;;;;;10.60;2.53;;;;;;;-142.75;100.00;77983.91;5026093;28;20499;-65
2023/05/29 01:51:32;;;;;;;11.13;2.05;;;;;;;-142.75;100.00;77985.88;5026034;28;20032;-66
2023/05/29 01:54:01;;;;;;;11.75;2.22;;;;;;;-142.75;100.00;77989.81;5025863;28;20029;-65
2023/05/29 01:56:28;;;;;;;19.40;2.38;;;;;;;-142.75;100.00;78003.59;5026151;28;20026;-66
2023/05/29 01:58:58;;;;;;;8.27;1.80;;;;;;;-142.75;100.00;78011.47;5025831;28;20025;-65
2023/05/29 02:01:24;;;;;;;14.70;1.60;;;;;;;-142.75;100.00;78042.97;5025912;28;20508;-65
2023/05/29 02:03:50;;;;;;;11.57;2.42;;;;;;;-142.75;100.00;78027.22;5054307;28;20727;-65
2023/05/29 02:06:16;;;;;;;12.70;2.17;;;;;;;-142.75;100.00;78029.19;5024616;28;20109;-64
2023/05/29 02:08:42;;;;;;;10.07;2.40;;;;;;;-142.75;100.00;78041.00;5026840;28;20546;-65
2023/05/29 02:11:07;;;;;;;9.63;1.40;;;;;;;-142.75;100.00;78029.19;5025482;28;20040;-65
2023/05/29 02:13:32;;;;;;;11.20;2.25;;;;;;;-142.75;100.00;78048.88;5025870;28;20021;-66
2023/05/29 02:15:57;;;;;;;13.27;2.63;;;;;;;-142.75;100.00;78042.97;5025719;28;20546;-65
2023/05/29 02:18:23;;;;;;;12.88;2.17;;;;;;;-142.75;100.00;78042.97;5025690;28;20026;-65
2023/05/29 02:20:49;;;;;;;9.50;1.80;;;;;;;-142.75;100.00;78039.03;5025439;28;20478;-65
2023/05/29 02:23:15;;;;;;;9.10;2.05;;;;;;;-142.75;100.00;78054.81;5025973;28;20121;-65
2023/05/29 02:25:41;;;;;;;9.50;1.58;;;;;;;-142.75;100.00;78042.97;5024874;28;20104;-64
2023/05/29 02:28:06;;;;;;;14.85;2.53;;;;;;;-142.75;100.00;78054.81;5025418;28;20826;-65
2023/05/29 02:30:31;;;;;;;7.30;1.67;;;;;;;-142.75;100.00;78037.06;5025290;28;20045;-65
2023/05/29 02:32:57;;;;;;;12.38;2.92;;;;;;;-142.75;100.00;78044.94;5024488;28;20030;-65
2023/05/29 02:35:22;;;;;;;11.25;2.08;;;;;;;-142.75;100.00;78066.63;5025364;28;20022;-65
2023/05/29 02:37:51;;;;;;;14.35;2.42;;;;;;;-142.75;100.00;78062.69;5026021;28;20030;-64
2023/05/29 02:40:17;;;;;;;7.72;1.67;;;;;;;-142.75;100.00;78062.69;5025477;28;20101;-64
2023/05/29 02:42:42;;;;;;;8.15;1.80;;;;;;;-142.75;100.00;78070.56;5025892;28;20021;-66
2023/05/29 02:45:08;;;;;;;10.85;2.13;;;;;;;-142.75;100.00;78078.44;5025369;28;20506;-66
2023/05/29 02:47:34;;;;;;;15.45;3.03;;;;;;;-142.75;100.00;78078.44;5025757;28;20624;-65
2023/05/29 02:49:59;;;;;;;8.82;1.50;;;;;;;-142.75;100.00;78086.31;5024950;28;20029;-65
2023/05/29 02:52:25;;;;;;;6.80;1.55;;;;;;;-142.75;100.00;78092.22;5025512;28;20104;-66
2023/05/29 02:54:50;;;;;;;11.48;1.63;;;;;;;-142.75;100.00;78078.44;5025613;28;20140;-65
2023/05/29 02:57:15;;;;;;;12.32;1.92;;;;;;;-142.75;100.00;78084.34;5041205;28;20017;-63
2023/05/29 02:59:41;;;;;;;9.55;1.42;;;;;;;-142.75;100.00;78076.47;5025871;28;20490;-65
2023/05/29 03:02:06;;;;;;;8.60;2.00;;;;;;;-142.75;100.00;78106.00;5026209;28;20026;-65
2023/05/29 03:04:32;;;;;;;9.57;1.73;;;;;;;-142.75;100.00;78098.13;5025869;28;20083;-65
2023/05/29 03:06:57;;;;;;;10.65;1.83;;;;;;;-142.75;100.00;78109.94;5027902;28;20541;-65
2023/05/29 03:09:23;;;;;;;8.77;2.03;;;;;;;-142.75;100.00;78111.91;5029560;28;20036;-66
2023/05/29 03:11:50;;;;;;;10.52;2.22;;;;;;;-142.75;100.00;78107.97;5029257;28;20029;-64
2023/05/29 03:14:16;;;;;;;11.82;2.20;;;;;;;-142.75;100.00;78102.06;5029947;28;20021;-66
2023/05/29 03:16:43;;;;;;;13.73;1.75;;;;;;;-142.75;100.00;78121.75;5028612;28;20055;-66
2023/05/29 03:19:08;;;;;;;12.02;1.65;;;;;;;-142.75;100.00;78129.63;5029487;28;20029;-65
2023/05/29 03:21:33;;;;;;;14.50;2.42;;;;;;;-142.75;100.00;78125.69;5029540;28;20025;-65
2023/05/29 03:24:00;;;;;;;12.05;1.85;;;;;;;-142.75;100.00;78127.66;5029248;28;20080;-65
2023/05/29 03:26:26;;;;;;;16.17;2.20;;;;;;;-142.75;100.00;78125.69;5047054;28;20061;-65
2023/05/29 03:28:51;;;;;;;11.77;2.23;;;;;;;-142.75;100.00;78139.47;5049139;28;20016;-66
2023/05/29 03:31:17;;;;;;;9.00;2.00;;;;;;;-142.75;100.00;78113.88;5049138;28;20025;-65
2023/05/29 03:33:42;;;;;;;13.45;1.60;;;;;;;-142.75;100.00;78129.63;5049172;28;20032;-65
2023/05/29 03:36:07;;;;;;;11.75;1.48;;;;;;;-142.75;100.00;78145.38;5048969;28;20224;-65
2023/05/29 03:38:33;;;;;;;15.57;1.80;;;;;;;-142.75;100.00;78141.44;5049178;28;20025;-65
2023/05/29 03:40:58;;;;;;;14.27;1.90;;;;;;;-142.75;100.00;78131.59;5048375;28;20622;-65
2023/05/29 03:43:24;;;;;;;9.03;1.87;;;;;;;-142.75;100.00;78155.22;5048443;28;20029;-66
2023/05/29 03:45:49;;;;;;;14.13;1.65;;;;;;;-142.75;100.00;78151.28;5048147;28;20025;-64
2023/05/29 03:48:15;;;;;;;5.60;1.25;;;;;;;-142.75;100.00;78149.31;5048770;28;20025;-65
2023/05/29 03:50:40;;;;;;;8.77;1.95;;;;;;;-142.75;100.00;78153.25;5034282;28;20070;-65
2023/05/29 03:53:06;;;;;;;11.18;1.77;;;;;;;-142.75;100.00;78161.13;5028387;28;20494;-65
2023/05/29 03:55:31;;;;;;;8.15;1.60;;;;;;;-142.75;100.00;78167.03;5028572;28;20030;-66
2023/05/29 03:57:56;;;;;;;12.03;1.57;;;;;;;-142.75;100.00;78182.81;5028958;28;20103;-66
2023/05/29 04:00:22;;;;;;;10.80;1.70;;;;;;;-142.75;100.00;78170.97;5028587;28;20087;-65
2023/05/29 04:02:47;;;;;;;18.55;1.90;;;;;;;-142.75;100.00;78169.00;5028885;28;20036;-64
2023/05/29 04:05:12;;;;;;;14.23;2.00;;;;;;;-142.75;100.00;78165.06;5028910;28;20037;-65
2023/05/29 04:07:38;;;;;;;14.83;1.73;;;;;;;-142.75;100.00;78165.06;5028841;28;20025;-65
2023/05/29 04:10:04;;;;;;;9.50;1.67;;;;;;;-142.75;100.00;78165.06;5028323;28;20036;-65
2023/05/29 04:12:30;;;;;;;9.88;1.50;;;;;;;-142.75;100.00;78167.03;5028518;28;20036;-65
2023/05/29 04:14:55;;;;;;;11.32;1.98;;;;;;;-142.75;100.00;78174.91;5028510;28;20036;-65
2023/05/29 04:17:20;;;;;;;14.65;2.05;;;;;;;-142.75;100.00;78170.97;5028513;28;20091;-66
2023/05/29 04:19:46;;;;;;;11.90;1.80;;;;;;;-142.75;100.00;78167.03;5028409;28;20056;-64
2023/05/29 04:22:11;;;;;;;11.85;1.83;;;;;;;-142.75;100.00;78169.00;5028785;28;20025;-65
2023/05/29 04:24:37;;;;;;;15.10;2.00;;;;;;;-142.75;100.00;78169.00;5028389;28;20032;-65
2023/05/29 04:27:02;;;;;;;12.00;2.20;;;;;;;-142.75;100.00;78167.03;5028501;28;20064;-66
2023/05/29 04:29:33;;;;;;;13.10;2.45;;;;;;;-142.75;100.00;78149.31;5028189;28;20117;-65
2023/05/29 04:32:02;;;;;;;11.82;1.65;;;;;;;-142.75;100.00;78153.25;5028388;28;20033;-65
2023/05/29 04:34:28;;;;;;;12.98;2.10;;;;;;;-142.75;100.00;78157.19;5028399;28;20032;-65
2023/05/29 04:36:53;;;;;;;11.82;1.73;;;;;;;-142.75;100.00;78141.44;5028086;28;20049;-65
2023/05/29 04:39:22;;;;;;;8.88;1.92;;;;;;;-142.75;100.00;78129.63;5027907;28;20021;-65
2023/05/29 04:41:47;;;;;;;10.23;2.17;;;;;;;-142.75;100.00;78137.50;5027976;28;20213;-64
2023/05/29 04:44:13;;;;;;;12.43;2.30;;;;;;;-142.75;100.00;78121.75;5028204;28;20021;-65
2023/05/29 04:46:38;;;;;;;9.20;1.75;;;;;;;-142.75;100.00;78123.72;5027764;28;20121;-65
2023/05/29 04:49:04;;;;;;;18.08;1.55;;;;;;;-142.75;100.00;78137.50;5027902;28;20021;-66
2023/05/29 04:51:30;;;;;;;16.90;2.33;;;;;;;-142.75;100.00;78133.56;5027874;28;20018;-65
2023/05/29 04:53:55;;;;;;;12.82;1.83;;;;;;;-142.75;100.00;78131.59;5026622;28;20035;-66
2023/05/29 04:56:21;;;;;;;11.93;2.15;;;;;;;-142.75;100.00;78117.81;5027840;28;20112;-65
2023/05/29 04:58:47;;;;;;;17.17;1.85;;;;;;;-142.75;100.00;78117.81;5027811;28;20124;-65
2023/05/29 05:01:14;;;;;;;11.75;1.85;;;;;;;-142.75;100.00;78106.00;5027790;28;20107;-65
2023/05/29 05:03:42;;;;;;;15.77;2.40;;;;;;;-142.75;100.00;78088.28;5027658;28;20022;-65
2023/05/29 05:06:08;;;;;;;12.20;1.80;;;;;;;-142.75;100.00;78113.88;5027369;28;20422;-66
2023/05/29 05:08:34;;;;;;;10.38;2.15;;;;;;;-142.75;100.00;78090.25;5027576;28;20025;-66
2023/05/29 05:11:00;;;;;;;15.15;2.00;;;;;;;-142.75;100.00;78088.28;5027148;28;20025;-65
2023/05/29 05:13:26;;;;;;;10.32;1.88;;;;;;;-142.75;100.00;78074.50;5026786;28;20029;-65
2023/05/29 05:15:52;;;;;;;11.68;2.75;;;;;;;-142.75;100.00;78080.41;5027366;28;20025;-65
2023/05/29 05:18:17;;;;;;;14.07;2.60;;;;;;;-142.75;100.00;78088.28;5027465;28;20021;-64
2023/05/29 05:20:42;;;;;;;10.50;1.80;;;;;;;-142.75;100.00;78088.28;5027334;28;20502;-65
2023/05/29 05:23:08;;;;;;;11.38;1.80;;;;;;;-142.75;100.00;78098.13;5027132;28;20025;-66
2023/05/29 05:25:35;;;;;;;7.18;1.98;;;;;;;-142.75;100.00;78066.63;5027206;28;20021;-66
2023/05/29 05:28:02;;;;;;;10.88;2.08;;;;;;;-142.75;100.00;78074.50;5027729;28;20031;-66
2023/05/29 05:30:28;;;;;;;16.77;2.08;;;;;;;-142.75;100.00;78058.72;5026219;28;20499;-65
2023/05/29 05:32:53;;;;;;;9.32;2.03;;;;;;;-142.75;100.00;78023.28;5027021;28;20022;-65
2023/05/29 05:35:19;;;;;;;12.52;2.28;;;;;;;-142.75;100.00;77999.66;5026594;28;20451;-65
2023/05/29 05:37:44;;;;;;;12.05;1.92;;;;;;;-142.75;100.00;78015.41;5027322;28;20722;-65
2023/05/29 05:40:10;;;;;;;12.45;2.55;;;;;;;-142.75;100.00;78007.53;5026661;28;20033;-66
2023/05/29 05:42:35;;;;;;;9.70;1.40;;;;;;;-142.75;100.00;77983.91;5045500;28;20066;-65
2023/05/29 05:45:01;;;;;;;12.52;2.35;;;;;;;-142.75;100.00;77987.84;5046363;28;20512;-66
2023/05/29 05:47:27;;;;;;;18.48;2.00;;;;;;;-142.75;100.00;77983.91;5046694;28;20029;-65
2023/05/29 05:49:53;;;;;;;13.85;2.22;;;;;;;-142.75;100.00;77976.03;5046233;28;20244;-65
2023/05/29 05:52:18;;;;;;;12.63;2.10;;;;;;;-142.75;100.00;77968.16;5046649;28;20119;-65
2023/05/29 05:54:44;;;;;;;13.98;2.30;;;;;;;-142.75;100.00;77970.13;5046799;28;20017;-66
2023/05/29 05:57:10;;;;;;;13.98;1.92;;;;;;;-142.75;100.00;77954.38;5038587;28;20094;-66
2023/05/29 05:59:35;;;;;;;16.27;2.13;;;;;;;-142.75;100.00;77944.53;5026498;28;20096;-66
2023/05/29 06:02:01;;;;;;;7.28;1.85;;;;;;;-142.75;100.00;77964.22;5026833;28;20082;-67
2023/05/29 06:04:27;;;;;;;12.23;1.75;;;;;;;-142.75;100.00;77999.66;5026036;28;20021;-66
2023/05/29 06:06:52;;;;;;;9.70;1.70;;;;;;;-142.75;100.00;77958.31;5025699;28;20617;-66
2023/05/29 06:09:17;;;;;;;15.57;2.05;;;;;;;-142.75;100.00;77942.56;5026123;28;20075;-65
2023/05/29 06:11:43;;;;;;;8.30;3.03;;;;;;;-142.75;100.00;77964.22;5026141;28;20143;-66
2023/05/29 06:14:08;;;;;;;15.23;2.65;;;;;;;-142.75;100.00;77926.81;5026229;28;20017;-66
2023/05/29 06:16:34;;;;;;;9.30;1.83;;;;;;;-142.75;100.00;77928.78;5028358;28;20056;-67
2023/05/29 06:18:59;;;;;;;8.68;1.63;;;;;;;-142.75;100.00;77915.00;5027567;28;20059;-66
2023/05/29 06:21:25;;;;;;;15.60;2.28;;;;;;;-142.75;100.00;77901.19;5042591;28;20035;-66
2023/05/29 06:23:51;;;;;;;16.13;2.47;;;;;;;-142.75;100.00;77907.09;5026274;28;20022;-66
2023/05/29 06:26:16;;;;;;;13.93;1.92;;;;;;;-142.75;100.00;77893.31;5026519;28;20021;-64
2023/05/29 06:28:41;;;;;;;11.52;1.50;;;;;;;-142.75;100.00;77840.16;5026617;28;20115;-66
2023/05/29 06:31:07;;;;;;;12.65;1.70;;;;;;;-142.75;100.00;77818.50;5027096;28;20096;-67
2023/05/29 06:33:32;;;;;;;10.38;1.80;;;;;;;-142.75;100.00;77834.25;5027317;28;20024;-66
2023/05/29 06:35:57;;;;;;;13.13;1.98;;;;;;;-142.75;100.00;77818.50;5027392;28;20033;-66
2023/05/29 06:38:23;;;;;;;20.33;2.33;;;;;;;-142.75;100.00;77824.41;5027615;28;20025;-66
2023/05/29 06:40:48;;;;;;;11.50;1.77;;;;;;;-142.75;100.00;77806.69;5027861;28;20033;-66
2023/05/29 06:43:13;;;;;;;17.92;2.88;;;;;;;-142.75;100.00;77798.81;5033216;28;20634;-65
2023/05/29 06:45:40;;;;;;;11.60;2.28;;;;;;;-142.75;100.00;77783.06;5032322;28;20103;-66
2023/05/29 06:48:05;;;;;;;12.93;1.95;;;;;;;-142.75;100.00;77779.13;5046581;28;20021;-67
2023/05/29 06:50:31;;;;;;;6.97;1.40;;;;;;;-142.75;100.00;77777.16;5028536;28;20055;-67
2023/05/29 06:52:56;;;;;;;7.32;1.88;;;;;;;-142.75;100.00;77743.69;5029661;28;20018;-67
2023/05/29 06:55:21;;;;;;;7.95;2.03;;;;;;;-142.75;100.00;77710.19;5031147;28;20029;-67
2023/05/29 06:57:47;;;;;;;10.23;2.03;;;;;;;-142.75;100.00;77696.41;5029770;28;20666;-66
2023/05/29 07:00:13;;;;;;;13.25;1.63;;;;;;;-142.75;100.00;77674.75;5029798;28;20025;-66
2023/05/29 07:02:38;;;;;;;8.02;1.90;;;;;;;-142.75;100.00;77649.16;5029891;28;20055;-67
2023/05/29 07:05:04;;;;;;;14.15;1.85;;;;;;;-142.75;100.00;77659.00;5032774;28;20478;-66
2023/05/29 07:07:32;;;;;;;11.93;1.55;;;;;;;-142.75;100.00;77698.38;5030627;28;20440;-65
2023/05/29 07:09:57;;;;;;;11.30;1.88;;;;;;;-142.75;100.00;77731.88;5029570;28;20096;-66
2023/05/29 07:12:25;;;;;;;14.20;1.52;;;;;;;-142.75;100.00;77751.56;5030763;28;20108;-66
2023/05/29 07:14:50;;;;;;;8.85;1.38;;;;;;;-142.75;100.00;77727.94;5029048;28;20021;-66
2023/05/29 07:17:16;;;;;;;12.70;2.40;;;;;;;-142.75;100.00;77775.19;5043735;28;20031;-63
2023/05/29 07:19:41;;;;;;;13.98;2.03;;;;;;;-142.75;100.00;77788.97;5049356;28;20025;-66
2023/05/29 07:22:06;;;;;;;7.82;1.73;;;;;;;-142.75;100.00;77787.00;5036807;28;20032;-66
2023/05/29 07:24:32;;;;;;;10.75;2.47;;;;;;;-142.75;100.00;77727.94;5029656;28;20064;-66
2023/05/29 07:26:57;;;;;;;9.75;1.50;;;;;;;-142.75;100.00;77698.38;5030820;28;20061;-66
2023/05/29 07:29:23;;;;;;;10.68;1.98;;;;;;;-142.75;100.00;77720.03;5029517;28;20017;-67
2023/05/29 07:31:51;;;;;;;10.10;1.73;;;;;;;-142.75;100.00;77722.00;5041795;28;20552;-66
2023/05/29 07:34:17;;;;;;;14.55;1.48;;;;;;;-142.75;100.00;77720.03;5028322;28;20482;-65
2023/05/29 07:37:02;;;;;;;8.85;1.95;;;;;;;-142.75;100.00;77672.78;5048928;28;20103;-66
2023/05/29 07:39:28;;;;;;;9.57;1.90;;;;;;;-142.75;100.00;77639.31;5049250;28;20024;-65
2023/05/29 07:41:53;;;;;;;9.38;2.10;;;;;;;-142.75;100.00;77682.63;5049238;28;20379;-66
2023/05/29 07:44:18;;;;;;;9.98;1.65;;;;;;;-142.75;100.00;77627.50;5049000;28;20505;-66
2023/05/29 07:46:45;;;;;;;11.23;1.48;;;;;;;-142.75;100.00;77631.44;5029942;28;20029;-66
2023/05/29 07:49:10;;;;;;;6.88;1.10;;;;;;;-142.75;100.00;77586.16;5028927;28;20056;-67
2023/05/29 07:51:36;;;;;;;16.10;1.67;;;;;;;-142.75;100.00;77578.28;5028405;28;20052;-66
2023/05/29 07:54:02;;;;;;;8.20;1.67;;;;;;;-142.75;100.00;77586.16;5048695;28;20021;-66
2023/05/29 07:56:27;;;;;;;10.18;1.65;;;;;;;-142.75;100.00;77566.47;5048744;28;20454;-66
2023/05/29 07:58:54;;;;;;;11.55;1.88;;;;;;;-142.75;100.00;77519.22;5048717;28;20504;-65
2023/05/29 08:01:21;;;;;;;9.43;1.67;;;;;;;-142.75;100.00;77538.91;5048215;28;20078;-66
2023/05/29 08:03:46;;;;;;;9.60;1.58;;;;;;;-142.75;100.00;77592.06;5032656;28;20037;-65
2023/05/29 08:06:12;;;;;;;10.50;1.50;;;;;;;-142.75;100.00;77576.31;5028684;28;20025;-66
2023/05/29 08:08:37;;;;;;;9.10;1.45;;;;;;;-142.75;100.00;77552.69;5028140;28;20078;-66
2023/05/29 08:11:03;;;;;;;15.70;2.10;;;;;;;-142.75;100.00;77503.47;5027653;28;20147;-66
2023/05/29 08:13:30;;;;;;;7.90;1.50;;;;;;;-142.75;100.00;77503.47;5025730;28;20032;-67
2023/05/29 08:15:55;;;;;;;6.25;1.48;;;;;;;-142.75;100.00;77464.09;5028564;28;20018;-66
2023/05/29 08:18:21;;;;;;;8.35;1.45;;;;;;;-142.75;100.00;77454.25;5028174;28;20052;-66
2023/05/29 08:20:46;;;;;;;10.55;1.90;;;;;;;-142.75;100.00;77509.38;5027970;28;20027;-65
2023/05/29 08:23:11;;;;;;;7.65;1.30;;;;;;;-142.75;100.00;77493.63;5027542;28;20418;-66
2023/05/29 08:25:37;;;;;;;5.25;1.10;;;;;;;-142.75;100.00;77538.91;5027866;28;20110;-66
2023/05/29 08:28:02;;;;;;;7.40;1.40;;;;;;;-142.75;100.00;77487.72;5026622;28;20462;-66
2023/05/29 08:30:27;;;;;;;10.05;1.88;;;;;;;-142.75;100.00;77471.97;5027584;28;20087;-67
2023/05/29 08:32:53;;;;;;;8.10;1.15;;;;;;;-142.75;100.00;77436.50;5028205;28;20022;-65
2023/05/29 08:35:18;;;;;;;6.38;1.60;;;;;;;-142.75;100.00;77430.59;5027896;28;20108;-67
2023/05/29 08:37:43;;;;;;;12.30;1.25;;;;;;;-142.75;100.00;77416.81;5028187;28;20520;-66
2023/05/29 08:40:10;;;;;;;11.05;1.98;;;;;;;-142.75;100.00;77416.81;5026214;28;20029;-67
2023/05/29 08:43:08;;;;;;;8.60;1.40;;;;;;;-142.75;100.00;77387.28;5027917;28;20029;-67
2023/05/29 08:45:37;;;;;;;7.63;1.45;;;;;;;-142.75;98.28;77444.38;5027086;28;20043;-66
2023/05/29 08:48:03;;;;;;;6.72;1.73;;;;;;;-142.75;100.00;77406.97;5031191;28;20029;-67
2023/05/29 08:50:28;;;;;;;9.18;2.22;;;;;;;-142.75;98.05;77424.69;5047970;28;20539;-67
2023/05/29 08:52:56;;;;;;;6.15;1.92;;;;;;;-142.75;100.00;77432.56;5048097;28;20021;-67
2023/05/29 08:55:21;;;;;;;7.38;1.23;;;;;;;-142.75;100.00;77391.22;5033047;28;20029;-67
2023/05/29 08:57:48;;;;;;;7.05;1.60;;;;;;;-142.75;100.00;77359.72;5027652;28;20083;-66
2023/05/29 09:00:16;;;;;;;9.50;1.50;;;;;;;-142.75;100.00;77312.47;5027420;28;20053;-67
2023/05/29 09:02:45;;;;;;;6.20;1.30;;;;;;;-142.75;93.84;77320.34;5027709;28;20036;-67
2023/05/29 09:05:12;;;;;;;8.63;1.23;;;;;;;-142.75;93.71;77290.81;5026367;28;20434;-67
2023/05/29 09:07:39;;;;;;;14.48;1.58;;;;;;;-142.75;95.16;77302.63;5030090;28;20075;-67
2023/05/29 09:10:15;;;;;;;8.55;1.40;;;;;;;-142.75;90.86;77353.81;5026845;28;20021;-67
2023/05/29 09:12:41;;;;;;;9.43;1.45;;;;;;;-142.75;88.54;77389.25;5032083;28;20029;-67
2023/05/29 09:15:21;;;;;;;9.88;1.70;;;;;;;-142.75;91.16;77342.00;5029509;28;20104;-67
2023/05/29 09:17:54;;;;;;;9.02;1.45;;;;;;;-142.75;87.58;77347.91;5030612;28;20030;-66
2023/05/29 09:20:24;;;;;;;8.50;1.90;;;;;;;-142.75;93.38;77310.50;5046845;28;20108;-67
2023/05/29 09:23:03;;;;;;;7.47;1.55;;;;;;;-142.75;87.73;77322.31;5047680;28;20029;-67
2023/05/29 09:25:31;;;;;;;12.63;1.27;;;;;;;-142.75;87.93;77279.00;5047383;28;20115;-67
2023/05/29 09:28:05;;;;;;;6.45;1.45;;;;;;;-142.75;89.82;77267.19;5047225;28;20017;-68
2023/05/29 09:30:39;;;;;;;6.78;1.30;;;;;;;-142.75;85.26;77271.13;5031636;28;20087;-68
2023/05/29 09:33:10;;;;;;;10.63;1.70;;;;;;;-142.75;87.09;77251.44;5026929;28;20032;-67
2023/05/29 09:35:37;;;;;;;9.85;1.52;;;;;;;-142.75;90.88;77249.47;5033110;28;20457;-67
2023/05/29 09:38:03;;;;;;;6.13;1.05;;;;;;;-142.75;90.22;77235.69;5027174;28;20075;-67
2023/05/29 09:40:46;;;;;;;5.18;0.98;;;;;;;-142.75;90.37;77184.50;5026792;28;20037;-67
2023/05/29 09:43:14;;;;;;;7.25;1.50;;;;;;;-142.75;86.25;77204.19;5030741;28;20138;-67
2023/05/29 09:45:41;;;;;;;7.03;1.30;;;;;;;-142.75;85.05;77212.06;5046649;28;20033;-67
2023/05/29 09:48:08;;;;;;;8.80;1.50;;;;;;;-142.75;86.03;77158.91;5046543;28;20024;-68
2023/05/29 09:50:35;;;;;;;7.47;1.70;;;;;;;-142.75;83.34;77154.97;5026778;28;20033;-67
2023/05/29 09:53:01;;;;;;;8.07;1.58;;;;;;;-142.75;84.45;77247.50;5026371;28;20091;-67
2023/05/29 09:55:28;;;;;;;4.45;1.30;;;;;;;-142.75;83.72;77219.94;5028394;28;20071;-67
2023/05/29 09:57:54;;;;;;;8.27;1.48;;;;;;;-142.75;84.98;77263.25;5026585;28;20053;-67
2023/05/29 10:00:21;;;;;;;7.40;1.42;;;;;;;-142.75;87.44;77196.31;5041414;28;20060;-66
2023/05/29 10:02:48;;;;;;;8.60;1.52;;;;;;;-142.75;81.84;77188.44;5026222;28;20056;-66
2023/05/29 10:05:15;;;;;;;12.88;1.55;;;;;;;-142.75;85.92;77172.69;5026342;28;20457;-67
2023/05/29 10:07:44;;;;;;;7.40;1.50;;;;;;;-142.75;80.74;77204.19;5041617;28;20390;-65
2023/05/29 10:10:11;;;;;;;6.57;1.10;;;;;;;-142.75;81.72;77219.94;5025112;28;20048;-66
2023/05/29 10:12:38;;;;;;;8.00;1.88;;;;;;;-142.75;88.81;77164.81;5026301;28;20071;-65
2023/05/29 10:15:11;;;;;;;6.68;1.20;;;;;;;-142.75;86.54;77133.31;5025753;28;20746;-65
2023/05/29 10:17:38;;;;;;;6.20;1.40;;;;;;;-142.75;83.52;77123.47;5024381;28;20412;-65
2023/05/29 10:20:06;;;;;;;5.57;1.15;;;;;;;-142.75;83.38;77200.25;5023743;28;20133;-63
2023/05/29 10:22:33;;;;;;;7.57;1.40;;;;;;;-142.75;86.89;77147.09;5025465;28;20076;-65
2023/05/29 10:25:00;;;;;;;9.80;2.00;;;;;;;-142.75;83.88;77127.41;5024799;28;20512;-65
2023/05/29 10:27:26;;;;;;;8.73;1.83;;;;;;;-142.75;81.14;77127.41;5025314;28;20039;-66
2023/05/29 10:29:55;;;;;;;7.47;1.23;;;;;;;-142.75;80.09;77180.56;5025477;28;20033;-66
2023/05/29 10:32:36;;;;;;;7.60;1.30;;;;;;;-142.75;81.93;77151.03;5032290;28;20029;-65
2023/05/29 10:35:22;;;;;;;6.72;1.55;;;;;;;-142.75;85.26;77115.59;5025682;28;20025;-66
2023/05/29 10:38:09;;;;;;;9.38;1.40;;;;;;;-142.75;81.80;77086.06;5026689;28;20029;-64
2023/05/29 10:40:34;;;;;;;;;;;;;;;-142.75;82.14;77129.38;5024483;28;20024;-66
2023/05/29 10:42:59;;;;;;;18.87;3.60;;;;;;;-142.75;82.63;77080.16;5024786;28;19917;-65
2023/05/29 10:45:28;;;;;;;9.10;1.52;;;;;;;-142.75;83.85;77078.19;5028527;28;20036;-65
2023/05/29 10:47:53;;;;;;;5.13;1.50;;;;;;;-142.75;83.17;77034.88;5043245;28;20025;-65
2023/05/29 10:50:41;;;;;;;5.22;1.25;;;;;;;-142.75;81.86;77025.03;5027794;28;20127;-64
2023/05/29 10:53:07;;;;;;;7.25;1.42;;;;;;;-142.75;84.96;77007.31;5027302;28;20027;-65
2023/05/29 10:55:37;;;;;;;7.60;1.70;;;;;;;-142.75;81.05;76983.69;5025242;28;20144;-66
2023/05/29 10:58:12;;;;;;;12.75;2.35;;;;;;;-142.75;81.23;77023.06;5031051;28;20037;-66
2023/05/29 11:00:41;;;;;;;5.55;1.48;;;;;;;-142.75;76.72;77121.50;5025143;28;20521;-64
2023/05/29 11:03:07;;;;;;;11.10;1.60;;;;;;;-142.75;79.35;77090.00;5026926;28;20048;-62
2023/05/29 11:05:33;;;;;;;7.03;1.33;;;;;;;-142.75;80.53;77056.53;5026295;28;20025;-64